sensor_id;sensor_type;location;lat;lon;timestamp;P1;durP1;ratioP1;P2;durP2;ratioP2
37341;SDS011;58643;49.052;8.518;2023-04-07T00:01:33;8.30;;;6.00;;
37341;SDS011;58643;49.052;8.518;2023-04-07T00:03:58;9.75;;;6.20;;
37341;SDS011;58643;49.052;8.518;2023-04-07T00:06:24;10.40;;;6.13;;
37341;SDS011;58643;49.052;8.518;2023-04-07T00:08:51;9.65;;;6.00;;
37341;SDS011;58643;49.052;8.518;2023-04-07T00:11:17;9.32;;;6.05;;
37341;SDS011;58643;49.052;8.518;2023-04-07T00:13:42;9.68;;;5.90;;
37341;SDS011;58643;49.052;8.518;2023-04-07T00:16:08;9.88;;;5.75;;
37341;SDS011;58643;49.052;8.518;2023-04-07T00:18:33;12.23;;;6.10;;
37341;SDS011;58643;49.052;8.518;2023-04-07T00:20:59;11.57;;;6.20;;
37341;SDS011;58643;49.052;8.518;2023-04-07T00:23:25;10.98;;;6.05;;
37341;SDS011;58643;49.052;8.518;2023-04-07T00:25:51;12.07;;;6.00;;
37341;SDS011;58643;49.052;8.518;2023-04-07T00:28:16;9.25;;;6.25;;
37341;SDS011;58643;49.052;8.518;2023-04-07T00:30:42;8.77;;;6.05;;
37341;SDS011;58643;49.052;8.518;2023-04-07T00:33:07;9.32;;;5.43;;
37341;SDS011;58643;49.052;8.518;2023-04-07T00:35:33;9.15;;;5.85;;
37341;SDS011;58643;49.052;8.518;2023-04-07T00:37:58;8.98;;;5.55;;
37341;SDS011;58643;49.052;8.518;2023-04-07T00:40:24;9.35;;;5.63;;
37341;SDS011;58643;49.052;8.518;2023-04-07T00:42:50;11.00;;;5.97;;
37341;SDS011;58643;49.052;8.518;2023-04-07T00:45:16;7.57;;;5.28;;
37341;SDS011;58643;49.052;8.518;2023-04-07T00:47:42;9.77;;;5.82;;
37341;SDS011;58643;49.052;8.518;2023-04-07T00:50:08;10.82;;;6.20;;
37341;SDS011;58643;49.052;8.518;2023-04-07T00:52:33;10.02;;;6.45;;
37341;SDS011;58643;49.052;8.518;2023-04-07T00:55:00;9.38;;;6.35;;
37341;SDS011;58643;49.052;8.518;2023-04-07T00:57:26;9.05;;;6.25;;
37341;SDS011;58643;49.052;8.518;2023-04-07T00:59:51;10.15;;;6.53;;
37341;SDS011;58643;49.052;8.518;2023-04-07T01:02:18;12.32;;;6.75;;
37341;SDS011;58643;49.052;8.518;2023-04-07T01:04:55;14.70;;;7.18;;
37341;SDS011;58643;49.052;8.518;2023-04-07T01:07:33;11.05;;;7.28;;
37341;SDS011;58643;49.052;8.518;2023-04-07T01:10:04;11.48;;;7.22;;
37341;SDS011;58643;49.052;8.518;2023-04-07T01:15:08;10.75;;;6.95;;
37341;SDS011;58643;49.052;8.518;2023-04-07T01:17:36;9.23;;;5.60;;
37341;SDS011;58643;49.052;8.518;2023-04-07T01:20:06;10.05;;;6.00;;
37341;SDS011;58643;49.052;8.518;2023-04-07T01:22:45;9.68;;;5.78;;
37341;SDS011;58643;49.052;8.518;2023-04-07T01:30:53;9.73;;;5.43;;
37341;SDS011;58643;49.052;8.518;2023-04-07T01:33:22;9.15;;;5.30;;
37341;SDS011;58643;49.052;8.518;2023-04-07T01:35:49;8.02;;;5.32;;
37341;SDS011;58643;49.052;8.518;2023-04-07T01:38:16;9.20;;;5.45;;
37341;SDS011;58643;49.052;8.518;2023-04-07T01:40:42;9.30;;;5.47;;
37341;SDS011;58643;49.052;8.518;2023-04-07T01:43:09;8.80;;;5.32;;
37341;SDS011;58643;49.052;8.518;2023-04-07T01:45:36;9.98;;;5.80;;
37341;SDS011;58643;49.052;8.518;2023-04-07T01:48:04;9.60;;;5.68;;
37341;SDS011;58643;49.052;8.518;2023-04-07T01:50:31;8.40;;;6.32;;
37341;SDS011;58643;49.052;8.518;2023-04-07T01:52:57;9.98;;;6.93;;
37341;SDS011;58643;49.052;8.518;2023-04-07T01:55:23;11.20;;;6.18;;
37341;SDS011;58643;49.052;8.518;2023-04-07T01:57:51;9.55;;;6.68;;
37341;SDS011;58643;49.052;8.518;2023-04-07T02:00:18;9.43;;;6.72;;
37341;SDS011;58643;49.052;8.518;2023-04-07T02:02:44;11.82;;;7.60;;
37341;SDS011;58643;49.052;8.518;2023-04-07T02:05:12;10.65;;;7.10;;
37341;SDS011;58643;49.052;8.518;2023-04-07T02:07:51;11.88;;;7.00;;
37341;SDS011;58643;49.052;8.518;2023-04-07T02:10:22;11.80;;;7.40;;
37341;SDS011;58643;49.052;8.518;2023-04-07T02:12:50;13.10;;;7.65;;
37341;SDS011;58643;49.052;8.518;2023-04-07T02:15:17;14.00;;;7.75;;
37341;SDS011;58643;49.052;8.518;2023-04-07T02:17:44;9.90;;;7.07;;
37341;SDS011;58643;49.052;8.518;2023-04-07T02:20:13;10.82;;;7.32;;
37341;SDS011;58643;49.052;8.518;2023-04-07T02:22:41;10.45;;;8.00;;
37341;SDS011;58643;49.052;8.518;2023-04-07T02:25:21;11.95;;;7.13;;
37341;SDS011;58643;49.052;8.518;2023-04-07T02:27:51;10.00;;;6.38;;
37341;SDS011;58643;49.052;8.518;2023-04-07T02:30:17;11.85;;;7.35;;
37341;SDS011;58643;49.052;8.518;2023-04-07T02:32:43;11.50;;;7.82;;
37341;SDS011;58643;49.052;8.518;2023-04-07T02:35:09;10.48;;;6.97;;
37341;SDS011;58643;49.052;8.518;2023-04-07T02:37:36;16.23;;;7.20;;
37341;SDS011;58643;49.052;8.518;2023-04-07T02:40:02;12.23;;;7.95;;
37341;SDS011;58643;49.052;8.518;2023-04-07T02:42:28;10.13;;;6.95;;
37341;SDS011;58643;49.052;8.518;2023-04-07T02:44:54;11.35;;;7.40;;
37341;SDS011;58643;49.052;8.518;2023-04-07T02:47:20;12.77;;;7.57;;
37341;SDS011;58643;49.052;8.518;2023-04-07T02:49:46;11.02;;;7.13;;
37341;SDS011;58643;49.052;8.518;2023-04-07T02:52:11;9.82;;;7.20;;
37341;SDS011;58643;49.052;8.518;2023-04-07T02:54:37;10.55;;;7.38;;
37341;SDS011;58643;49.052;8.518;2023-04-07T02:57:02;12.23;;;8.02;;
37341;SDS011;58643;49.052;8.518;2023-04-07T02:59:28;11.10;;;7.75;;
37341;SDS011;58643;49.052;8.518;2023-04-07T03:01:54;13.73;;;7.60;;
37341;SDS011;58643;49.052;8.518;2023-04-07T03:04:20;12.85;;;7.47;;
37341;SDS011;58643;49.052;8.518;2023-04-07T03:06:46;12.63;;;6.82;;
37341;SDS011;58643;49.052;8.518;2023-04-07T03:09:11;13.07;;;7.25;;
37341;SDS011;58643;49.052;8.518;2023-04-07T03:11:37;11.88;;;7.88;;
37341;SDS011;58643;49.052;8.518;2023-04-07T03:14:03;13.27;;;7.75;;
37341;SDS011;58643;49.052;8.518;2023-04-07T03:16:28;11.32;;;7.25;;
37341;SDS011;58643;49.052;8.518;2023-04-07T03:18:54;9.63;;;7.15;;
37341;SDS011;58643;49.052;8.518;2023-04-07T03:21:20;13.38;;;7.70;;
37341;SDS011;58643;49.052;8.518;2023-04-07T03:23:46;12.43;;;7.55;;
37341;SDS011;58643;49.052;8.518;2023-04-07T03:26:11;11.77;;;7.82;;
37341;SDS011;58643;49.052;8.518;2023-04-07T03:28:37;12.77;;;7.97;;
37341;SDS011;58643;49.052;8.518;2023-04-07T03:31:02;15.00;;;8.27;;
37341;SDS011;58643;49.052;8.518;2023-04-07T03:33:28;11.55;;;7.57;;
37341;SDS011;58643;49.052;8.518;2023-04-07T03:35:54;12.27;;;8.35;;
37341;SDS011;58643;49.052;8.518;2023-04-07T03:38:19;13.07;;;8.85;;
37341;SDS011;58643;49.052;8.518;2023-04-07T03:40:45;14.38;;;8.95;;
37341;SDS011;58643;49.052;8.518;2023-04-07T03:43:11;16.10;;;8.90;;
37341;SDS011;58643;49.052;8.518;2023-04-07T03:45:39;12.20;;;8.00;;
37341;SDS011;58643;49.052;8.518;2023-04-07T03:48:06;12.38;;;7.38;;
37341;SDS011;58643;49.052;8.518;2023-04-07T03:50:36;11.00;;;7.32;;
37341;SDS011;58643;49.052;8.518;2023-04-07T03:53:02;10.77;;;6.63;;
37341;SDS011;58643;49.052;8.518;2023-04-07T03:55:27;11.98;;;7.13;;
37341;SDS011;58643;49.052;8.518;2023-04-07T03:57:54;8.63;;;6.25;;
37341;SDS011;58643;49.052;8.518;2023-04-07T04:00:19;10.05;;;6.85;;
37341;SDS011;58643;49.052;8.518;2023-04-07T04:02:45;12.43;;;6.78;;
37341;SDS011;58643;49.052;8.518;2023-04-07T04:05:11;9.77;;;6.50;;
37341;SDS011;58643;49.052;8.518;2023-04-07T04:07:36;9.48;;;6.70;;
37341;SDS011;58643;49.052;8.518;2023-04-07T04:10:02;9.90;;;6.82;;
37341;SDS011;58643;49.052;8.518;2023-04-07T04:12:28;9.13;;;6.50;;
37341;SDS011;58643;49.052;8.518;2023-04-07T04:14:53;10.45;;;6.97;;
37341;SDS011;58643;49.052;8.518;2023-04-07T04:17:19;10.05;;;6.65;;
37341;SDS011;58643;49.052;8.518;2023-04-07T04:19:44;10.77;;;6.18;;
37341;SDS011;58643;49.052;8.518;2023-04-07T04:22:10;9.45;;;6.22;;
37341;SDS011;58643;49.052;8.518;2023-04-07T04:24:36;16.67;;;7.95;;
37341;SDS011;58643;49.052;8.518;2023-04-07T04:27:01;12.50;;;7.93;;
37341;SDS011;58643;49.052;8.518;2023-04-07T04:29:27;14.07;;;8.68;;
37341;SDS011;58643;49.052;8.518;2023-04-07T04:31:52;14.65;;;8.93;;
37341;SDS011;58643;49.052;8.518;2023-04-07T04:34:18;12.38;;;8.43;;
37341;SDS011;58643;49.052;8.518;2023-04-07T04:36:43;13.85;;;8.15;;
37341;SDS011;58643;49.052;8.518;2023-04-07T04:39:09;13.45;;;7.95;;
37341;SDS011;58643;49.052;8.518;2023-04-07T04:41:35;12.57;;;8.52;;
37341;SDS011;58643;49.052;8.518;2023-04-07T04:44:01;14.02;;;9.27;;
37341;SDS011;58643;49.052;8.518;2023-04-07T04:46:26;15.85;;;9.90;;
37341;SDS011;58643;49.052;8.518;2023-04-07T04:48:52;17.27;;;9.48;;
37341;SDS011;58643;49.052;8.518;2023-04-07T04:51:18;13.18;;;8.77;;
37341;SDS011;58643;49.052;8.518;2023-04-07T04:53:44;13.48;;;8.60;;
37341;SDS011;58643;49.052;8.518;2023-04-07T04:56:09;15.52;;;8.65;;
37341;SDS011;58643;49.052;8.518;2023-04-07T04:58:36;13.18;;;8.23;;
37341;SDS011;58643;49.052;8.518;2023-04-07T05:01:04;16.08;;;8.35;;
37341;SDS011;58643;49.052;8.518;2023-04-07T05:03:30;18.83;;;8.65;;
37341;SDS011;58643;49.052;8.518;2023-04-07T05:05:55;14.30;;;8.40;;
37341;SDS011;58643;49.052;8.518;2023-04-07T05:08:21;18.73;;;8.93;;
37341;SDS011;58643;49.052;8.518;2023-04-07T05:10:46;16.85;;;8.85;;
37341;SDS011;58643;49.052;8.518;2023-04-07T05:13:12;14.63;;;8.60;;
37341;SDS011;58643;49.052;8.518;2023-04-07T05:15:39;13.23;;;8.15;;
37341;SDS011;58643;49.052;8.518;2023-04-07T05:18:05;11.70;;;7.47;;
37341;SDS011;58643;49.052;8.518;2023-04-07T05:20:31;11.68;;;6.88;;
37341;SDS011;58643;49.052;8.518;2023-04-07T05:22:56;12.57;;;8.27;;
37341;SDS011;58643;49.052;8.518;2023-04-07T05:25:22;12.90;;;8.50;;
37341;SDS011;58643;49.052;8.518;2023-04-07T05:27:48;14.20;;;8.75;;
37341;SDS011;58643;49.052;8.518;2023-04-07T05:30:14;13.43;;;8.52;;
37341;SDS011;58643;49.052;8.518;2023-04-07T05:32:40;12.27;;;7.70;;
37341;SDS011;58643;49.052;8.518;2023-04-07T05:35:05;13.30;;;7.65;;
37341;SDS011;58643;49.052;8.518;2023-04-07T05:37:31;13.23;;;8.18;;
37341;SDS011;58643;49.052;8.518;2023-04-07T05:39:57;10.65;;;7.68;;
37341;SDS011;58643;49.052;8.518;2023-04-07T05:42:22;11.40;;;7.60;;
37341;SDS011;58643;49.052;8.518;2023-04-07T05:44:48;13.45;;;7.95;;
37341;SDS011;58643;49.052;8.518;2023-04-07T05:47:14;11.75;;;8.63;;
37341;SDS011;58643;49.052;8.518;2023-04-07T05:49:40;11.40;;;8.32;;
37341;SDS011;58643;49.052;8.518;2023-04-07T05:52:10;12.75;;;8.02;;
37341;SDS011;58643;49.052;8.518;2023-04-07T05:54:36;11.18;;;7.93;;
37341;SDS011;58643;49.052;8.518;2023-04-07T05:57:04;14.02;;;8.07;;
37341;SDS011;58643;49.052;8.518;2023-04-07T05:59:29;10.73;;;7.50;;
37341;SDS011;58643;49.052;8.518;2023-04-07T06:01:55;12.23;;;9.07;;
37341;SDS011;58643;49.052;8.518;2023-04-07T06:04:21;12.80;;;7.15;;
37341;SDS011;58643;49.052;8.518;2023-04-07T06:06:46;10.40;;;7.65;;
37341;SDS011;58643;49.052;8.518;2023-04-07T06:09:12;11.23;;;7.75;;
37341;SDS011;58643;49.052;8.518;2023-04-07T06:11:37;13.65;;;8.57;;
37341;SDS011;58643;49.052;8.518;2023-04-07T06:14:03;12.45;;;7.82;;
37341;SDS011;58643;49.052;8.518;2023-04-07T06:16:29;13.55;;;8.50;;
37341;SDS011;58643;49.052;8.518;2023-04-07T06:18:54;33.58;;;15.48;;
37341;SDS011;58643;49.052;8.518;2023-04-07T06:21:20;20.00;;;9.88;;
37341;SDS011;58643;49.052;8.518;2023-04-07T06:23:46;22.67;;;10.95;;
37341;SDS011;58643;49.052;8.518;2023-04-07T06:26:12;38.05;;;17.85;;
37341;SDS011;58643;49.052;8.518;2023-04-07T06:28:37;16.63;;;9.82;;
37341;SDS011;58643;49.052;8.518;2023-04-07T06:31:03;11.13;;;6.78;;
37341;SDS011;58643;49.052;8.518;2023-04-07T06:33:29;11.90;;;9.38;;
37341;SDS011;58643;49.052;8.518;2023-04-07T06:35:55;9.35;;;6.85;;
37341;SDS011;58643;49.052;8.518;2023-04-07T06:38:21;10.60;;;6.53;;
37341;SDS011;58643;49.052;8.518;2023-04-07T06:40:47;9.98;;;7.13;;
37341;SDS011;58643;49.052;8.518;2023-04-07T06:43:12;12.23;;;7.10;;
37341;SDS011;58643;49.052;8.518;2023-04-07T06:45:38;10.75;;;6.78;;
37341;SDS011;58643;49.052;8.518;2023-04-07T06:48:03;9.38;;;6.20;;
37341;SDS011;58643;49.052;8.518;2023-04-07T06:50:29;9.75;;;4.90;;
37341;SDS011;58643;49.052;8.518;2023-04-07T06:52:55;8.93;;;5.40;;
37341;SDS011;58643;49.052;8.518;2023-04-07T06:55:21;17.00;;;6.80;;
37341;SDS011;58643;49.052;8.518;2023-04-07T06:57:46;9.50;;;5.65;;
37341;SDS011;58643;49.052;8.518;2023-04-07T07:00:12;7.60;;;5.68;;
37341;SDS011;58643;49.052;8.518;2023-04-07T07:02:38;7.45;;;4.65;;
37341;SDS011;58643;49.052;8.518;2023-04-07T07:05:04;9.98;;;5.18;;
37341;SDS011;58643;49.052;8.518;2023-04-07T07:07:30;8.35;;;5.47;;
37341;SDS011;58643;49.052;8.518;2023-04-07T07:09:56;8.23;;;5.43;;
37341;SDS011;58643;49.052;8.518;2023-04-07T07:12:22;9.63;;;5.43;;
37341;SDS011;58643;49.052;8.518;2023-04-07T07:14:47;9.27;;;5.30;;
37341;SDS011;58643;49.052;8.518;2023-04-07T07:17:13;9.55;;;5.72;;
37341;SDS011;58643;49.052;8.518;2023-04-07T07:19:39;8.93;;;5.22;;
37341;SDS011;58643;49.052;8.518;2023-04-07T07:22:04;7.40;;;5.55;;
37341;SDS011;58643;49.052;8.518;2023-04-07T07:24:30;12.45;;;5.75;;
37341;SDS011;58643;49.052;8.518;2023-04-07T07:26:58;8.60;;;5.95;;
37341;SDS011;58643;49.052;8.518;2023-04-07T07:29:24;7.28;;;5.38;;
37341;SDS011;58643;49.052;8.518;2023-04-07T07:31:49;12.30;;;5.97;;
37341;SDS011;58643;49.052;8.518;2023-04-07T07:34:15;11.65;;;6.35;;
37341;SDS011;58643;49.052;8.518;2023-04-07T07:36:41;7.70;;;5.05;;
37341;SDS011;58643;49.052;8.518;2023-04-07T07:39:06;7.68;;;5.18;;
37341;SDS011;58643;49.052;8.518;2023-04-07T07:41:32;7.70;;;5.45;;
37341;SDS011;58643;49.052;8.518;2023-04-07T07:43:57;8.30;;;5.45;;
37341;SDS011;58643;49.052;8.518;2023-04-07T07:46:23;10.15;;;5.18;;
37341;SDS011;58643;49.052;8.518;2023-04-07T07:48:50;7.43;;;5.32;;
37341;SDS011;58643;49.052;8.518;2023-04-07T07:51:15;9.18;;;4.90;;
37341;SDS011;58643;49.052;8.518;2023-04-07T07:53:42;7.30;;;4.82;;
37341;SDS011;58643;49.052;8.518;2023-04-07T07:56:10;10.40;;;5.77;;
37341;SDS011;58643;49.052;8.518;2023-04-07T07:58:36;7.93;;;5.00;;
37341;SDS011;58643;49.052;8.518;2023-04-07T08:01:05;7.03;;;4.63;;
37341;SDS011;58643;49.052;8.518;2023-04-07T08:03:34;9.48;;;5.32;;
37341;SDS011;58643;49.052;8.518;2023-04-07T08:05:59;6.83;;;4.30;;
37341;SDS011;58643;49.052;8.518;2023-04-07T08:08:25;8.55;;;4.82;;
37341;SDS011;58643;49.052;8.518;2023-04-07T08:10:51;6.32;;;4.50;;
37341;SDS011;58643;49.052;8.518;2023-04-07T08:13:16;10.45;;;4.53;;
37341;SDS011;58643;49.052;8.518;2023-04-07T08:15:42;9.88;;;4.50;;
37341;SDS011;58643;49.052;8.518;2023-04-07T08:18:08;9.35;;;4.53;;
37341;SDS011;58643;49.052;8.518;2023-04-07T08:20:33;9.52;;;4.78;;
37341;SDS011;58643;49.052;8.518;2023-04-07T08:23:00;8.13;;;4.63;;
37341;SDS011;58643;49.052;8.518;2023-04-07T08:25:26;10.18;;;5.05;;
37341;SDS011;58643;49.052;8.518;2023-04-07T08:27:52;11.20;;;5.07;;
37341;SDS011;58643;49.052;8.518;2023-04-07T08:30:18;6.90;;;4.97;;
37341;SDS011;58643;49.052;8.518;2023-04-07T08:32:45;7.32;;;4.70;;
37341;SDS011;58643;49.052;8.518;2023-04-07T08:35:11;10.68;;;5.32;;
37341;SDS011;58643;49.052;8.518;2023-04-07T08:37:37;7.20;;;4.60;;
37341;SDS011;58643;49.052;8.518;2023-04-07T08:40:03;7.68;;;4.35;;
37341;SDS011;58643;49.052;8.518;2023-04-07T08:42:30;6.38;;;4.15;;
37341;SDS011;58643;49.052;8.518;2023-04-07T08:44:58;7.50;;;3.88;;
37341;SDS011;58643;49.052;8.518;2023-04-07T08:47:29;6.43;;;4.13;;
37341;SDS011;58643;49.052;8.518;2023-04-07T08:49:58;6.18;;;3.85;;
37341;SDS011;58643;49.052;8.518;2023-04-07T08:52:49;6.35;;;3.90;;
37341;SDS011;58643;49.052;8.518;2023-04-07T08:55:24;8.40;;;3.97;;
37341;SDS011;58643;49.052;8.518;2023-04-07T08:57:50;6.38;;;3.22;;
37341;SDS011;58643;49.052;8.518;2023-04-07T09:00:16;14.82;;;3.65;;
37341;SDS011;58643;49.052;8.518;2023-04-07T09:02:43;5.95;;;3.88;;
37341;SDS011;58643;49.052;8.518;2023-04-07T09:05:09;6.63;;;3.20;;
37341;SDS011;58643;49.052;8.518;2023-04-07T09:07:36;6.55;;;3.25;;
37341;SDS011;58643;49.052;8.518;2023-04-07T09:10:04;7.97;;;3.47;;
37341;SDS011;58643;49.052;8.518;2023-04-07T09:12:31;7.05;;;3.08;;
37341;SDS011;58643;49.052;8.518;2023-04-07T09:14:57;6.63;;;2.97;;
37341;SDS011;58643;49.052;8.518;2023-04-07T09:17:26;6.55;;;3.03;;
37341;SDS011;58643;49.052;8.518;2023-04-07T09:19:56;5.28;;;2.60;;
37341;SDS011;58643;49.052;8.518;2023-04-07T09:22:36;7.47;;;3.13;;
37341;SDS011;58643;49.052;8.518;2023-04-07T09:25:19;5.43;;;2.60;;
37341;SDS011;58643;49.052;8.518;2023-04-07T09:30:19;4.28;;;2.08;;
37341;SDS011;58643;49.052;8.518;2023-04-07T09:32:45;6.18;;;2.45;;
37341;SDS011;58643;49.052;8.518;2023-04-07T09:35:11;3.55;;;2.40;;
37341;SDS011;58643;49.052;8.518;2023-04-07T09:37:36;5.05;;;2.55;;
37341;SDS011;58643;49.052;8.518;2023-04-07T09:40:02;5.47;;;2.50;;
37341;SDS011;58643;49.052;8.518;2023-04-07T09:42:28;5.72;;;2.33;;
37341;SDS011;58643;49.052;8.518;2023-04-07T09:44:57;5.70;;;1.90;;
37341;SDS011;58643;49.052;8.518;2023-04-07T09:47:26;8.43;;;2.83;;
37341;SDS011;58643;49.052;8.518;2023-04-07T09:49:53;9.75;;;2.88;;
37341;SDS011;58643;49.052;8.518;2023-04-07T09:55:19;4.45;;;2.72;;
37341;SDS011;58643;49.052;8.518;2023-04-07T09:57:47;7.63;;;3.25;;
37341;SDS011;58643;49.052;8.518;2023-04-07T10:00:17;6.68;;;2.75;;
37341;SDS011;58643;49.052;8.518;2023-04-07T10:02:43;8.63;;;2.50;;
37341;SDS011;58643;49.052;8.518;2023-04-07T10:05:09;5.95;;;2.40;;
37341;SDS011;58643;49.052;8.518;2023-04-07T10:07:35;5.85;;;2.72;;
37341;SDS011;58643;49.052;8.518;2023-04-07T10:10:04;7.15;;;3.15;;
37341;SDS011;58643;49.052;8.518;2023-04-07T10:12:33;9.65;;;2.97;;
37341;SDS011;58643;49.052;8.518;2023-04-07T10:15:01;5.10;;;2.42;;
37341;SDS011;58643;49.052;8.518;2023-04-07T10:17:27;9.15;;;3.13;;
37341;SDS011;58643;49.052;8.518;2023-04-07T10:19:53;5.38;;;3.03;;
37341;SDS011;58643;49.052;8.518;2023-04-07T10:22:22;6.22;;;3.50;;
37341;SDS011;58643;49.052;8.518;2023-04-07T10:24:50;5.20;;;3.10;;
37341;SDS011;58643;49.052;8.518;2023-04-07T10:27:21;8.25;;;2.88;;
37341;SDS011;58643;49.052;8.518;2023-04-07T10:29:53;6.53;;;3.42;;
37341;SDS011;58643;49.052;8.518;2023-04-07T10:32:19;9.43;;;2.80;;
37341;SDS011;58643;49.052;8.518;2023-04-07T10:37:14;7.97;;;3.17;;
37341;SDS011;58643;49.052;8.518;2023-04-07T10:39:46;4.35;;;2.80;;
37341;SDS011;58643;49.052;8.518;2023-04-07T10:45:03;9.57;;;3.28;;
37341;SDS011;58643;49.052;8.518;2023-04-07T10:47:29;7.20;;;2.97;;
37341;SDS011;58643;49.052;8.518;2023-04-07T10:52:48;6.77;;;2.70;;
37341;SDS011;58643;49.052;8.518;2023-04-07T10:58:14;6.15;;;2.60;;
37341;SDS011;58643;49.052;8.518;2023-04-07T11:03:58;7.30;;;3.97;;
37341;SDS011;58643;49.052;8.518;2023-04-07T11:06:24;5.95;;;2.90;;
37341;SDS011;58643;49.052;8.518;2023-04-07T11:08:51;6.40;;;2.70;;
37341;SDS011;58643;49.052;8.518;2023-04-07T11:11:33;6.03;;;3.03;;
37341;SDS011;58643;49.052;8.518;2023-04-07T11:14:02;8.40;;;2.78;;
37341;SDS011;58643;49.052;8.518;2023-04-07T11:16:34;8.95;;;3.72;;
37341;SDS011;58643;49.052;8.518;2023-04-07T11:19:07;9.30;;;3.20;;
37341;SDS011;58643;49.052;8.518;2023-04-07T11:21:33;9.52;;;3.47;;
37341;SDS011;58643;49.052;8.518;2023-04-07T11:24:00;9.52;;;3.33;;
37341;SDS011;58643;49.052;8.518;2023-04-07T11:26:26;5.95;;;3.13;;
37341;SDS011;58643;49.052;8.518;2023-04-07T11:28:52;7.18;;;2.97;;
37341;SDS011;58643;49.052;8.518;2023-04-07T11:31:25;6.95;;;3.72;;
37341;SDS011;58643;49.052;8.518;2023-04-07T11:39:18;5.28;;;2.63;;
37341;SDS011;58643;49.052;8.518;2023-04-07T11:41:46;5.65;;;2.13;;
37341;SDS011;58643;49.052;8.518;2023-04-07T11:44:13;6.50;;;1.90;;
37341;SDS011;58643;49.052;8.518;2023-04-07T11:46:51;4.28;;;1.83;;
37341;SDS011;58643;49.052;8.518;2023-04-07T11:49:21;2.17;;;1.23;;
37341;SDS011;58643;49.052;8.518;2023-04-07T11:51:56;3.90;;;1.40;;
37341;SDS011;58643;49.052;8.518;2023-04-07T11:54:23;5.85;;;1.35;;
37341;SDS011;58643;49.052;8.518;2023-04-07T11:56:48;6.00;;;1.38;;
37341;SDS011;58643;49.052;8.518;2023-04-07T11:59:19;5.78;;;1.17;;
37341;SDS011;58643;49.052;8.518;2023-04-07T12:01:47;4.18;;;1.60;;
37341;SDS011;58643;49.052;8.518;2023-04-07T12:04:13;7.03;;;1.80;;
37341;SDS011;58643;49.052;8.518;2023-04-07T12:06:40;4.00;;;1.63;;
37341;SDS011;58643;49.052;8.518;2023-04-07T12:09:24;3.95;;;1.70;;
37341;SDS011;58643;49.052;8.518;2023-04-07T12:11:54;8.80;;;2.03;;
37341;SDS011;58643;49.052;8.518;2023-04-07T12:14:21;5.72;;;1.88;;
37341;SDS011;58643;49.052;8.518;2023-04-07T12:16:47;6.05;;;1.85;;
37341;SDS011;58643;49.052;8.518;2023-04-07T12:19:13;6.57;;;1.67;;
37341;SDS011;58643;49.052;8.518;2023-04-07T12:21:38;3.65;;;1.80;;
37341;SDS011;58643;49.052;8.518;2023-04-07T12:24:04;5.03;;;2.00;;
37341;SDS011;58643;49.052;8.518;2023-04-07T12:26:29;5.80;;;1.48;;
37341;SDS011;58643;49.052;8.518;2023-04-07T12:28:55;5.47;;;1.50;;
37341;SDS011;58643;49.052;8.518;2023-04-07T12:31:22;4.65;;;1.27;;
37341;SDS011;58643;49.052;8.518;2023-04-07T12:33:48;3.63;;;1.40;;
37341;SDS011;58643;49.052;8.518;2023-04-07T12:36:14;4.25;;;1.42;;
37341;SDS011;58643;49.052;8.518;2023-04-07T12:38:40;3.17;;;1.58;;
37341;SDS011;58643;49.052;8.518;2023-04-07T12:41:05;6.43;;;1.40;;
37341;SDS011;58643;49.052;8.518;2023-04-07T12:43:31;3.72;;;1.30;;
37341;SDS011;58643;49.052;8.518;2023-04-07T12:45:57;4.18;;;1.25;;
37341;SDS011;58643;49.052;8.518;2023-04-07T12:48:22;3.80;;;1.48;;
37341;SDS011;58643;49.052;8.518;2023-04-07T12:50:48;3.10;;;1.23;;
37341;SDS011;58643;49.052;8.518;2023-04-07T12:53:14;3.00;;;1.10;;
37341;SDS011;58643;49.052;8.518;2023-04-07T12:55:40;2.55;;;1.20;;
37341;SDS011;58643;49.052;8.518;2023-04-07T12:58:06;3.72;;;1.10;;
37341;SDS011;58643;49.052;8.518;2023-04-07T13:00:33;2.75;;;1.30;;
37341;SDS011;58643;49.052;8.518;2023-04-07T13:02:58;4.10;;;1.40;;
37341;SDS011;58643;49.052;8.518;2023-04-07T13:05:24;3.25;;;1.10;;
37341;SDS011;58643;49.052;8.518;2023-04-07T13:07:50;2.10;;;1.00;;
37341;SDS011;58643;49.052;8.518;2023-04-07T13:10:15;2.92;;;1.00;;
37341;SDS011;58643;49.052;8.518;2023-04-07T13:12:41;1.67;;;1.00;;
37341;SDS011;58643;49.052;8.518;2023-04-07T13:15:06;2.28;;;1.00;;
37341;SDS011;58643;49.052;8.518;2023-04-07T13:17:32;4.63;;;1.13;;
37341;SDS011;58643;49.052;8.518;2023-04-07T13:20:00;2.15;;;1.15;;
37341;SDS011;58643;49.052;8.518;2023-04-07T13:22:27;2.83;;;1.60;;
37341;SDS011;58643;49.052;8.518;2023-04-07T13:24:53;2.95;;;0.70;;
37341;SDS011;58643;49.052;8.518;2023-04-07T13:27:19;2.03;;;0.90;;
37341;SDS011;58643;49.052;8.518;2023-04-07T13:29:45;4.55;;;1.25;;
37341;SDS011;58643;49.052;8.518;2023-04-07T13:32:11;1.13;;;0.80;;
37341;SDS011;58643;49.052;8.518;2023-04-07T13:34:37;1.65;;;0.90;;
37341;SDS011;58643;49.052;8.518;2023-04-07T13:37:04;1.48;;;0.70;;
37341;SDS011;58643;49.052;8.518;2023-04-07T13:39:30;5.30;;;1.30;;
37341;SDS011;58643;49.052;8.518;2023-04-07T13:41:56;2.55;;;1.00;;
37341;SDS011;58643;49.052;8.518;2023-04-07T13:44:25;3.88;;;1.00;;
37341;SDS011;58643;49.052;8.518;2023-04-07T13:46:52;2.42;;;0.98;;
37341;SDS011;58643;49.052;8.518;2023-04-07T13:49:18;2.38;;;1.10;;
37341;SDS011;58643;49.052;8.518;2023-04-07T13:51:43;2.22;;;0.90;;
37341;SDS011;58643;49.052;8.518;2023-04-07T13:54:09;2.53;;;0.75;;
37341;SDS011;58643;49.052;8.518;2023-04-07T13:56:35;1.80;;;0.77;;
37341;SDS011;58643;49.052;8.518;2023-04-07T13:59:02;1.42;;;0.88;;
37341;SDS011;58643;49.052;8.518;2023-04-07T14:03:59;1.40;;;0.70;;
37341;SDS011;58643;49.052;8.518;2023-04-07T14:06:25;1.40;;;0.60;;
37341;SDS011;58643;49.052;8.518;2023-04-07T14:08:51;1.02;;;0.63;;
37341;SDS011;58643;49.052;8.518;2023-04-07T14:11:20;1.63;;;0.70;;
37341;SDS011;58643;49.052;8.518;2023-04-07T14:13:46;2.33;;;1.40;;
37341;SDS011;58643;49.052;8.518;2023-04-07T14:16:12;1.60;;;0.80;;
37341;SDS011;58643;49.052;8.518;2023-04-07T14:18:38;1.42;;;1.00;;
37341;SDS011;58643;49.052;8.518;2023-04-07T14:21:04;2.33;;;1.30;;
37341;SDS011;58643;49.052;8.518;2023-04-07T14:23:30;2.47;;;1.00;;
37341;SDS011;58643;49.052;8.518;2023-04-07T14:25:56;1.48;;;1.13;;
37341;SDS011;58643;49.052;8.518;2023-04-07T14:28:26;3.55;;;1.13;;
37341;SDS011;58643;49.052;8.518;2023-04-07T14:30:52;1.40;;;1.02;;
37341;SDS011;58643;49.052;8.518;2023-04-07T14:33:21;1.85;;;0.90;;
37341;SDS011;58643;49.052;8.518;2023-04-07T14:35:46;1.30;;;0.80;;
37341;SDS011;58643;49.052;8.518;2023-04-07T14:38:12;1.42;;;1.00;;
37341;SDS011;58643;49.052;8.518;2023-04-07T14:40:38;2.15;;;1.25;;
37341;SDS011;58643;49.052;8.518;2023-04-07T14:43:04;1.83;;;1.02;;
37341;SDS011;58643;49.052;8.518;2023-04-07T14:45:31;1.92;;;0.80;;
37341;SDS011;58643;49.052;8.518;2023-04-07T14:47:57;2.13;;;1.10;;
37341;SDS011;58643;49.052;8.518;2023-04-07T14:50:23;4.25;;;1.20;;
37341;SDS011;58643;49.052;8.518;2023-04-07T14:52:48;1.65;;;1.02;;
37341;SDS011;58643;49.052;8.518;2023-04-07T14:55:14;3.72;;;1.00;;
37341;SDS011;58643;49.052;8.518;2023-04-07T14:57:40;3.17;;;1.60;;
37341;SDS011;58643;49.052;8.518;2023-04-07T15:00:06;1.83;;;1.35;;
37341;SDS011;58643;49.052;8.518;2023-04-07T15:02:32;2.25;;;1.40;;
37341;SDS011;58643;49.052;8.518;2023-04-07T15:04:59;2.08;;;1.30;;
37341;SDS011;58643;49.052;8.518;2023-04-07T15:07:24;1.30;;;0.95;;
37341;SDS011;58643;49.052;8.518;2023-04-07T15:09:50;1.20;;;1.00;;
37341;SDS011;58643;49.052;8.518;2023-04-07T15:12:16;1.05;;;0.80;;
37341;SDS011;58643;49.052;8.518;2023-04-07T15:14:42;0.70;;;0.70;;
37341;SDS011;58643;49.052;8.518;2023-04-07T15:17:08;0.85;;;0.80;;